sensor_id;sensor_type;location;lat;lon;timestamp;temperature;humidity
9448;DHT22;4762;48.128;11.376;2022-10-17T00:24:50;11.70;94.20
9448;DHT22;4762;48.128;11.376;2022-10-17T00:27:10;11.60;94.00
9448;DHT22;4762;48.128;11.376;2022-10-17T01:06:41;11.00;95.20
9448;DHT22;4762;48.128;11.376;2022-10-17T01:09:10;11.00;94.70
9448;DHT22;4762;48.128;11.376;2022-10-17T01:14:49;11.00;94.60
9448;DHT22;4762;48.128;11.376;2022-10-17T01:16:59;11.00;95.40
9448;DHT22;4762;48.128;11.376;2022-10-17T01:23:53;11.00;94.90
9448;DHT22;4762;48.128;11.376;2022-10-17T01:30:44;10.80;95.60
9448;DHT22;4762;48.128;11.376;2022-10-17T01:32:56;10.90;95.40
9448;DHT22;4762;48.128;11.376;2022-10-17T01:35:26;10.80;96.20
9448;DHT22;4762;48.128;11.376;2022-10-17T01:37:43;10.60;96.20
9448;DHT22;4762;48.128;11.376;2022-10-17T01:39:51;10.40;96.70
9448;DHT22;4762;48.128;11.376;2022-10-17T01:42:06;10.30;97.20
9448;DHT22;4762;48.128;11.376;2022-10-17T01:44:12;10.40;96.70
9448;DHT22;4762;48.128;11.376;2022-10-17T01:46:21;10.30;96.70
9448;DHT22;4762;48.128;11.376;2022-10-17T01:48:25;10.40;97.10
9448;DHT22;4762;48.128;11.376;2022-10-17T01:50:34;10.40;96.60
9448;DHT22;4762;48.128;11.376;2022-10-17T01:52:41;10.40;96.30
9448;DHT22;4762;48.128;11.376;2022-10-17T01:54:48;10.50;96.00
9448;DHT22;4762;48.128;11.376;2022-10-17T01:56:56;10.70;95.20
9448;DHT22;4762;48.128;11.376;2022-10-17T01:59:19;10.60;95.50
9448;DHT22;4762;48.128;11.376;2022-10-17T02:01:23;10.50;95.70
9448;DHT22;4762;48.128;11.376;2022-10-17T02:03:26;10.50;95.70
9448;DHT22;4762;48.128;11.376;2022-10-17T02:05:30;10.40;96.30
9448;DHT22;4762;48.128;11.376;2022-10-17T02:07:32;10.30;96.30
9448;DHT22;4762;48.128;11.376;2022-10-17T03:11:33;10.40;95.80
9448;DHT22;4762;48.128;11.376;2022-10-17T03:13:38;10.40;95.20
9448;DHT22;4762;48.128;11.376;2022-10-17T03:18:18;10.20;95.60
9448;DHT22;4762;48.128;11.376;2022-10-17T03:20:28;10.30;95.40
9448;DHT22;4762;48.128;11.376;2022-10-17T03:22:36;10.20;96.20
9448;DHT22;4762;48.128;11.376;2022-10-17T03:24:55;10.10;96.20
9448;DHT22;4762;48.128;11.376;2022-10-17T03:27:04;10.20;97.00
9448;DHT22;4762;48.128;11.376;2022-10-17T03:29:17;10.20;97.00
9448;DHT22;4762;48.128;11.376;2022-10-17T03:51:01;10.00;96.10
9448;DHT22;4762;48.128;11.376;2022-10-17T03:53:07;10.00;95.90
9448;DHT22;4762;48.128;11.376;2022-10-17T03:55:12;9.90;96.30
9448;DHT22;4762;48.128;11.376;2022-10-17T03:57:16;10.00;96.50
9448;DHT22;4762;48.128;11.376;2022-10-17T03:59:19;9.90;96.70
9448;DHT22;4762;48.128;11.376;2022-10-17T04:01:23;9.80;96.70
9448;DHT22;4762;48.128;11.376;2022-10-17T04:03:27;9.80;96.10
9448;DHT22;4762;48.128;11.376;2022-10-17T04:05:30;9.80;96.30
9448;DHT22;4762;48.128;11.376;2022-10-17T04:07:35;9.80;96.90
9448;DHT22;4762;48.128;11.376;2022-10-17T04:09:38;9.70;96.60
9448;DHT22;4762;48.128;11.376;2022-10-17T04:11:41;9.70;97.40
9448;DHT22;4762;48.128;11.376;2022-10-17T04:13:44;9.70;97.30
9448;DHT22;4762;48.128;11.376;2022-10-17T04:15:54;9.70;97.00
9448;DHT22;4762;48.128;11.376;2022-10-17T04:18:00;9.80;96.30
9448;DHT22;4762;48.128;11.376;2022-10-17T04:20:03;9.80;96.00
9448;DHT22;4762;48.128;11.376;2022-10-17T04:22:09;9.70;96.00
9448;DHT22;4762;48.128;11.376;2022-10-17T04:31:14;9.70;97.50
9448;DHT22;4762;48.128;11.376;2022-10-17T04:33:16;9.70;97.70
9448;DHT22;4762;48.128;11.376;2022-10-17T04:35:19;9.70;97.90
9448;DHT22;4762;48.128;11.376;2022-10-17T04:37:21;9.70;97.60
9448;DHT22;4762;48.128;11.376;2022-10-17T04:39:23;9.60;97.50
9448;DHT22;4762;48.128;11.376;2022-10-17T04:41:27;9.70;97.30
9448;DHT22;4762;48.128;11.376;2022-10-17T04:43:29;9.60;97.40
9448;DHT22;4762;48.128;11.376;2022-10-17T04:45:32;9.60;97.20
9448;DHT22;4762;48.128;11.376;2022-10-17T04:47:34;9.60;97.00
9448;DHT22;4762;48.128;11.376;2022-10-17T04:49:36;9.50;96.90
9448;DHT22;4762;48.128;11.376;2022-10-17T04:51:38;9.60;97.50
9448;DHT22;4762;48.128;11.376;2022-10-17T04:53:41;9.50;97.10
9448;DHT22;4762;48.128;11.376;2022-10-17T04:55:44;9.50;97.80
9448;DHT22;4762;48.128;11.376;2022-10-17T04:57:47;9.60;97.70
9448;DHT22;4762;48.128;11.376;2022-10-17T04:59:49;9.60;97.30
9448;DHT22;4762;48.128;11.376;2022-10-17T05:01:52;9.60;97.60
9448;DHT22;4762;48.128;11.376;2022-10-17T05:03:54;9.60;97.60
9448;DHT22;4762;48.128;11.376;2022-10-17T05:05:56;9.60;97.50
9448;DHT22;4762;48.128;11.376;2022-10-17T05:07:58;9.60;98.50
9448;DHT22;4762;48.128;11.376;2022-10-17T05:10:01;9.60;98.50
9448;DHT22;4762;48.128;11.376;2022-10-17T05:12:03;9.80;98.10
9448;DHT22;4762;48.128;11.376;2022-10-17T05:14:05;9.70;97.70
9448;DHT22;4762;48.128;11.376;2022-10-17T05:16:07;9.70;97.70
9448;DHT22;4762;48.128;11.376;2022-10-17T05:18:10;9.70;97.60
9448;DHT22;4762;48.128;11.376;2022-10-17T05:20:12;9.70;98.50
9448;DHT22;4762;48.128;11.376;2022-10-17T05:22:14;9.70;97.90
9448;DHT22;4762;48.128;11.376;2022-10-17T05:24:16;9.50;97.60
9448;DHT22;4762;48.128;11.376;2022-10-17T05:26:19;9.70;97.60
9448;DHT22;4762;48.128;11.376;2022-10-17T05:28:21;9.50;97.90
9448;DHT22;4762;48.128;11.376;2022-10-17T05:30:23;9.60;98.20
9448;DHT22;4762;48.128;11.376;2022-10-17T05:32:25;9.60;98.70
9448;DHT22;4762;48.128;11.376;2022-10-17T05:34:28;9.60;98.60
9448;DHT22;4762;48.128;11.376;2022-10-17T05:36:30;9.60;97.80
9448;DHT22;4762;48.128;11.376;2022-10-17T05:38:32;9.70;97.90
9448;DHT22;4762;48.128;11.376;2022-10-17T05:40:34;9.60;97.60
9448;DHT22;4762;48.128;11.376;2022-10-17T05:42:37;9.60;97.70
9448;DHT22;4762;48.128;11.376;2022-10-17T05:44:39;9.60;97.30
9448;DHT22;4762;48.128;11.376;2022-10-17T05:46:41;9.50;97.10
9448;DHT22;4762;48.128;11.376;2022-10-17T05:48:47;9.60;96.70
9448;DHT22;4762;48.128;11.376;2022-10-17T05:50:56;9.60;96.80
9448;DHT22;4762;48.128;11.376;2022-10-17T05:52:52;9.50;97.50
9448;DHT22;4762;48.128;11.376;2022-10-17T05:54:54;9.60;98.40
9448;DHT22;4762;48.128;11.376;2022-10-17T05:56:57;9.60;97.80
9448;DHT22;4762;48.128;11.376;2022-10-17T05:58:59;9.60;97.60
9448;DHT22;4762;48.128;11.376;2022-10-17T06:01:02;9.70;98.10
9448;DHT22;4762;48.128;11.376;2022-10-17T06:03:04;9.80;98.30
9448;DHT22;4762;48.128;11.376;2022-10-17T06:05:06;9.70;97.90
9448;DHT22;4762;48.128;11.376;2022-10-17T06:07:09;9.80;97.80
9448;DHT22;4762;48.128;11.376;2022-10-17T06:09:11;9.90;98.10
9448;DHT22;4762;48.128;11.376;2022-10-17T06:11:13;9.80;97.40
9448;DHT22;4762;48.128;11.376;2022-10-17T06:13:16;9.80;97.50
9448;DHT22;4762;48.128;11.376;2022-10-17T06:15:18;9.70;97.40
9448;DHT22;4762;48.128;11.376;2022-10-17T06:17:20;9.80;97.00
9448;DHT22;4762;48.128;11.376;2022-10-17T06:19:22;9.90;97.00
9448;DHT22;4762;48.128;11.376;2022-10-17T06:21:25;9.90;96.70
9448;DHT22;4762;48.128;11.376;2022-10-17T06:23:27;9.90;96.70
9448;DHT22;4762;48.128;11.376;2022-10-17T06:25:30;9.90;96.50
9448;DHT22;4762;48.128;11.376;2022-10-17T06:27:32;9.90;96.40
9448;DHT22;4762;48.128;11.376;2022-10-17T06:29:35;9.90;97.00
9448;DHT22;4762;48.128;11.376;2022-10-17T06:31:37;9.90;97.00
9448;DHT22;4762;48.128;11.376;2022-10-17T06:33:40;10.00;97.00
9448;DHT22;4762;48.128;11.376;2022-10-17T06:35:42;10.10;96.70
9448;DHT22;4762;48.128;11.376;2022-10-17T06:37:44;10.20;96.90
9448;DHT22;4762;48.128;11.376;2022-10-17T06:39:46;10.30;97.00
9448;DHT22;4762;48.128;11.376;2022-10-17T06:41:49;10.60;97.40
9448;DHT22;4762;48.128;11.376;2022-10-17T06:43:51;11.10;98.50
9448;DHT22;4762;48.128;11.376;2022-10-17T06:45:53;11.80;98.10
9448;DHT22;4762;48.128;11.376;2022-10-17T06:47:55;12.60;97.00
9448;DHT22;4762;48.128;11.376;2022-10-17T06:49:58;13.10;95.00
9448;DHT22;4762;48.128;11.376;2022-10-17T06:52:01;13.70;95.50
9448;DHT22;4762;48.128;11.376;2022-10-17T06:54:03;14.50;96.40
9448;DHT22;4762;48.128;11.376;2022-10-17T06:56:06;14.80;91.70
9448;DHT22;4762;48.128;11.376;2022-10-17T06:58:08;15.30;92.70
9448;DHT22;4762;48.128;11.376;2022-10-17T07:00:11;15.50;93.50
9448;DHT22;4762;48.128;11.376;2022-10-17T07:02:13;15.90;91.30
9448;DHT22;4762;48.128;11.376;2022-10-17T07:04:15;16.00;86.50
9448;DHT22;4762;48.128;11.376;2022-10-17T07:06:18;15.90;88.10
9448;DHT22;4762;48.128;11.376;2022-10-17T07:08:20;15.40;87.90
9448;DHT22;4762;48.128;11.376;2022-10-17T07:10:22;15.40;88.20
9448;DHT22;4762;48.128;11.376;2022-10-17T07:12:25;15.50;87.70
9448;DHT22;4762;48.128;11.376;2022-10-17T07:14:27;15.90;88.00
9448;DHT22;4762;48.128;11.376;2022-10-17T07:16:29;16.40;83.70
9448;DHT22;4762;48.128;11.376;2022-10-17T07:18:31;16.50;84.60
9448;DHT22;4762;48.128;11.376;2022-10-17T07:20:34;17.00;86.30
9448;DHT22;4762;48.128;11.376;2022-10-17T07:22:36;17.70;86.30
9448;DHT22;4762;48.128;11.376;2022-10-17T07:24:38;18.20;84.20
9448;DHT22;4762;48.128;11.376;2022-10-17T07:26:40;18.60;82.20
9448;DHT22;4762;48.128;11.376;2022-10-17T07:28:43;18.20;78.50
9448;DHT22;4762;48.128;11.376;2022-10-17T07:30:45;18.10;81.60
9448;DHT22;4762;48.128;11.376;2022-10-17T07:32:47;18.20;79.10
9448;DHT22;4762;48.128;11.376;2022-10-17T07:34:52;18.50;83.30
9448;DHT22;4762;48.128;11.376;2022-10-17T07:36:59;18.50;80.60
9448;DHT22;4762;48.128;11.376;2022-10-17T07:39:03;19.00;81.70
9448;DHT22;4762;48.128;11.376;2022-10-17T07:41:11;19.00;82.00
9448;DHT22;4762;48.128;11.376;2022-10-17T07:43:14;19.50;80.40
9448;DHT22;4762;48.128;11.376;2022-10-17T07:45:22;19.40;81.60
9448;DHT22;4762;48.128;11.376;2022-10-17T07:47:27;19.90;80.50
9448;DHT22;4762;48.128;11.376;2022-10-17T07:49:29;19.90;78.40
9448;DHT22;4762;48.128;11.376;2022-10-17T07:51:32;19.50;76.90
9448;DHT22;4762;48.128;11.376;2022-10-17T07:53:35;19.40;79.30
9448;DHT22;4762;48.128;11.376;2022-10-17T07:55:37;19.10;79.60
9448;DHT22;4762;48.128;11.376;2022-10-17T07:57:39;19.70;80.50
9448;DHT22;4762;48.128;11.376;2022-10-17T07:59:41;19.80;78.40
9448;DHT22;4762;48.128;11.376;2022-10-17T08:01:43;20.20;76.80
9448;DHT22;4762;48.128;11.376;2022-10-17T08:03:46;20.60;79.50
9448;DHT22;4762;48.128;11.376;2022-10-17T08:05:48;20.60;77.10
9448;DHT22;4762;48.128;11.376;2022-10-17T08:07:50;20.40;75.80
9448;DHT22;4762;48.128;11.376;2022-10-17T08:09:53;20.10;75.60
9448;DHT22;4762;48.128;11.376;2022-10-17T08:11:55;20.30;76.80
9448;DHT22;4762;48.128;11.376;2022-10-17T08:13:57;20.80;76.20
9448;DHT22;4762;48.128;11.376;2022-10-17T08:16:00;20.60;75.60
9448;DHT22;4762;48.128;11.376;2022-10-17T08:18:02;20.40;74.80
9448;DHT22;4762;48.128;11.376;2022-10-17T08:20:05;20.80;75.90
9448;DHT22;4762;48.128;11.376;2022-10-17T08:22:07;21.10;74.00
9448;DHT22;4762;48.128;11.376;2022-10-17T08:24:09;21.40;72.10
9448;DHT22;4762;48.128;11.376;2022-10-17T08:26:12;21.70;71.30
9448;DHT22;4762;48.128;11.376;2022-10-17T08:28:14;21.50;71.10
9448;DHT22;4762;48.128;11.376;2022-10-17T08:30:16;20.90;71.60
9448;DHT22;4762;48.128;11.376;2022-10-17T08:32:21;21.00;71.80
9448;DHT22;4762;48.128;11.376;2022-10-17T08:34:23;21.30;73.20
9448;DHT22;4762;48.128;11.376;2022-10-17T08:36:25;21.30;72.10
9448;DHT22;4762;48.128;11.376;2022-10-17T08:38:28;21.40;72.70
9448;DHT22;4762;48.128;11.376;2022-10-17T08:40:30;22.40;72.70
9448;DHT22;4762;48.128;11.376;2022-10-17T08:43:14;22.30;69.40
9448;DHT22;4762;48.128;11.376;2022-10-17T08:45:20;21.90;68.40
9448;DHT22;4762;48.128;11.376;2022-10-17T08:47:28;22.40;68.70
9448;DHT22;4762;48.128;11.376;2022-10-17T08:49:48;22.50;69.50
9448;DHT22;4762;48.128;11.376;2022-10-17T08:51:51;22.50;66.70
9448;DHT22;4762;48.128;11.376;2022-10-17T08:53:54;22.70;68.70
9448;DHT22;4762;48.128;11.376;2022-10-17T08:55:55;22.40;68.60
9448;DHT22;4762;48.128;11.376;2022-10-17T08:57:57;22.50;70.50
9448;DHT22;4762;48.128;11.376;2022-10-17T08:59:59;22.60;68.80
9448;DHT22;4762;48.128;11.376;2022-10-17T09:02:26;22.30;67.30
9448;DHT22;4762;48.128;11.376;2022-10-17T09:04:50;22.80;68.10
9448;DHT22;4762;48.128;11.376;2022-10-17T09:07:00;23.00;66.00
9448;DHT22;4762;48.128;11.376;2022-10-17T09:09:24;23.50;66.90
9448;DHT22;4762;48.128;11.376;2022-10-17T09:11:39;24.10;63.60
9448;DHT22;4762;48.128;11.376;2022-10-17T09:16:30;22.20;66.70
9448;DHT22;4762;48.128;11.376;2022-10-17T09:18:31;23.10;66.40
9448;DHT22;4762;48.128;11.376;2022-10-17T09:20:35;23.10;65.80
9448;DHT22;4762;48.128;11.376;2022-10-17T09:22:37;24.00;64.30
9448;DHT22;4762;48.128;11.376;2022-10-17T09:24:48;22.60;65.90
9448;DHT22;4762;48.128;11.376;2022-10-17T09:26:51;23.50;65.40
9448;DHT22;4762;48.128;11.376;2022-10-17T09:28:55;22.60;66.00
9448;DHT22;4762;48.128;11.376;2022-10-17T09:30:59;22.40;64.70
9448;DHT22;4762;48.128;11.376;2022-10-17T09:33:08;22.50;65.00
9448;DHT22;4762;48.128;11.376;2022-10-17T09:35:04;22.50;65.60
9448;DHT22;4762;48.128;11.376;2022-10-17T09:54:28;24.00;62.90
9448;DHT22;4762;48.128;11.376;2022-10-17T10:13:49;25.50;60.70
9448;DHT22;4762;48.128;11.376;2022-10-17T10:15:52;25.00;61.10
9448;DHT22;4762;48.128;11.376;2022-10-17T10:17:54;24.90;60.30
9448;DHT22;4762;48.128;11.376;2022-10-17T10:19:57;25.10;60.40
9448;DHT22;4762;48.128;11.376;2022-10-17T10:22:02;25.90;58.70
9448;DHT22;4762;48.128;11.376;2022-10-17T10:24:12;26.60;57.00
9448;DHT22;4762;48.128;11.376;2022-10-17T10:26:21;25.90;58.50
9448;DHT22;4762;48.128;11.376;2022-10-17T10:28:31;25.40;57.90
9448;DHT22;4762;48.128;11.376;2022-10-17T10:30:34;25.10;60.70
9448;DHT22;4762;48.128;11.376;2022-10-17T10:32:37;26.30;58.20
9448;DHT22;4762;48.128;11.376;2022-10-17T10:34:45;25.20;58.60
9448;DHT22;4762;48.128;11.376;2022-10-17T10:36:44;24.90;58.80
9448;DHT22;4762;48.128;11.376;2022-10-17T10:38:49;25.00;59.60
9448;DHT22;4762;48.128;11.376;2022-10-17T10:40:49;25.30;58.00
9448;DHT22;4762;48.128;11.376;2022-10-17T10:42:51;25.20;58.60
9448;DHT22;4762;48.128;11.376;2022-10-17T10:44:56;25.70;56.80
9448;DHT22;4762;48.128;11.376;2022-10-17T10:47:08;26.90;57.20
9448;DHT22;4762;48.128;11.376;2022-10-17T10:49:26;27.20;55.70
9448;DHT22;4762;48.128;11.376;2022-10-17T10:51:14;26.40;55.10
9448;DHT22;4762;48.128;11.376;2022-10-17T10:53:45;25.10;58.70
9448;DHT22;4762;48.128;11.376;2022-10-17T10:55:49;25.70;59.60
9448;DHT22;4762;48.128;11.376;2022-10-17T10:57:52;26.10;56.50
9448;DHT22;4762;48.128;11.376;2022-10-17T10:59:56;26.20;56.70
9448;DHT22;4762;48.128;11.376;2022-10-17T11:01:59;26.90;55.40
9448;DHT22;4762;48.128;11.376;2022-10-17T11:04:38;27.50;54.40
9448;DHT22;4762;48.128;11.376;2022-10-17T11:06:26;27.30;53.40
9448;DHT22;4762;48.128;11.376;2022-10-17T11:08:35;27.20;52.70
9448;DHT22;4762;48.128;11.376;2022-10-17T11:13:03;27.20;54.50
9448;DHT22;4762;48.128;11.376;2022-10-17T11:15:16;26.70;54.10
9448;DHT22;4762;48.128;11.376;2022-10-17T11:17:26;26.70;53.70
9448;DHT22;4762;48.128;11.376;2022-10-17T11:19:30;26.10;53.60
9448;DHT22;4762;48.128;11.376;2022-10-17T11:21:57;26.30;55.00
9448;DHT22;4762;48.128;11.376;2022-10-17T11:23:59;27.10;53.70
9448;DHT22;4762;48.128;11.376;2022-10-17T11:26:01;28.10;53.90
9448;DHT22;4762;48.128;11.376;2022-10-17T11:28:02;27.30;52.20
9448;DHT22;4762;48.128;11.376;2022-10-17T11:30:05;26.90;54.80
9448;DHT22;4762;48.128;11.376;2022-10-17T11:32:18;26.70;53.80
9448;DHT22;4762;48.128;11.376;2022-10-17T11:34:17;26.50;52.80
9448;DHT22;4762;48.128;11.376;2022-10-17T11:36:19;26.90;54.20
9448;DHT22;4762;48.128;11.376;2022-10-17T11:38:25;27.40;53.20
9448;DHT22;4762;48.128;11.376;2022-10-17T11:40:28;28.60;54.30
9448;DHT22;4762;48.128;11.376;2022-10-17T11:42:37;29.00;50.10
9448;DHT22;4762;48.128;11.376;2022-10-17T11:44:38;29.70;49.50
9448;DHT22;4762;48.128;11.376;2022-10-17T11:46:40;28.30;49.70
9448;DHT22;4762;48.128;11.376;2022-10-17T11:48:54;28.60;50.00
9448;DHT22;4762;48.128;11.376;2022-10-17T11:50:48;28.40;51.00
9448;DHT22;4762;48.128;11.376;2022-10-17T11:52:51;27.80;50.90
9448;DHT22;4762;48.128;11.376;2022-10-17T11:54:53;28.30;50.60
9448;DHT22;4762;48.128;11.376;2022-10-17T11:59:17;29.40;50.60
9448;DHT22;4762;48.128;11.376;2022-10-17T12:01:16;29.50;48.10
9448;DHT22;4762;48.128;11.376;2022-10-17T12:03:28;29.40;48.60
9448;DHT22;4762;48.128;11.376;2022-10-17T12:05:49;28.70;48.80
9448;DHT22;4762;48.128;11.376;2022-10-17T12:07:53;27.80;50.90
9448;DHT22;4762;48.128;11.376;2022-10-17T12:10:05;27.10;50.40
9448;DHT22;4762;48.128;11.376;2022-10-17T12:12:03;26.70;51.40
9448;DHT22;4762;48.128;11.376;2022-10-17T12:16:37;27.70;49.70
9448;DHT22;4762;48.128;11.376;2022-10-17T12:18:39;28.50;50.70
9448;DHT22;4762;48.128;11.376;2022-10-17T12:20:42;29.00;49.50
9448;DHT22;4762;48.128;11.376;2022-10-17T12:22:46;29.50;47.60
9448;DHT22;4762;48.128;11.376;2022-10-17T12:24:53;29.10;48.80
9448;DHT22;4762;48.128;11.376;2022-10-17T12:26:55;28.50;48.70
9448;DHT22;4762;48.128;11.376;2022-10-17T12:28:57;28.20;49.80
9448;DHT22;4762;48.128;11.376;2022-10-17T12:31:20;28.30;49.80
9448;DHT22;4762;48.128;11.376;2022-10-17T12:33:16;28.60;48.60
9448;DHT22;4762;48.128;11.376;2022-10-17T12:35:25;29.80;48.00
9448;DHT22;4762;48.128;11.376;2022-10-17T12:39:41;29.80;46.40
9448;DHT22;4762;48.128;11.376;2022-10-17T12:41:58;29.70;45.30
9448;DHT22;4762;48.128;11.376;2022-10-17T12:44:00;28.90;49.10
9448;DHT22;4762;48.128;11.376;2022-10-17T12:46:03;30.20;47.30
9448;DHT22;4762;48.128;11.376;2022-10-17T12:48:08;30.50;45.10
9448;DHT22;4762;48.128;11.376;2022-10-17T12:59:30;30.20;46.10
9448;DHT22;4762;48.128;11.376;2022-10-17T13:01:32;31.00;46.50
9448;DHT22;4762;48.128;11.376;2022-10-17T13:03:39;31.20;46.10
9448;DHT22;4762;48.128;11.376;2022-10-17T13:05:37;30.20;45.30
9448;DHT22;4762;48.128;11.376;2022-10-17T13:07:39;28.60;48.50
9448;DHT22;4762;48.128;11.376;2022-10-17T13:09:41;28.70;48.80
9448;DHT22;4762;48.128;11.376;2022-10-17T13:11:43;29.10;47.10
9448;DHT22;4762;48.128;11.376;2022-10-17T13:13:47;28.10;50.00
9448;DHT22;4762;48.128;11.376;2022-10-17T13:15:50;28.40;48.80
9448;DHT22;4762;48.128;11.376;2022-10-17T13:17:54;28.20;49.60
9448;DHT22;4762;48.128;11.376;2022-10-17T13:19:56;28.00;49.10
9448;DHT22;4762;48.128;11.376;2022-10-17T13:22:00;28.20;49.80
9448;DHT22;4762;48.128;11.376;2022-10-17T13:24:18;27.10;49.40
9448;DHT22;4762;48.128;11.376;2022-10-17T13:26:13;28.00;51.30
9448;DHT22;4762;48.128;11.376;2022-10-17T13:28:13;28.20;50.00
9448;DHT22;4762;48.128;11.376;2022-10-17T13:30:23;28.40;47.50
9448;DHT22;4762;48.128;11.376;2022-10-17T13:32:24;27.70;48.60
9448;DHT22;4762;48.128;11.376;2022-10-17T13:34:27;26.90;49.30
9448;DHT22;4762;48.128;11.376;2022-10-17T13:36:29;26.80;48.40
9448;DHT22;4762;48.128;11.376;2022-10-17T13:38:31;27.20;48.60
9448;DHT22;4762;48.128;11.376;2022-10-17T13:40:39;27.50;50.90
9448;DHT22;4762;48.128;11.376;2022-10-17T13:42:37;27.80;52.80
9448;DHT22;4762;48.128;11.376;2022-10-17T13:44:38;28.70;48.00
9448;DHT22;4762;48.128;11.376;2022-10-17T13:46:40;28.40;48.50
9448;DHT22;4762;48.128;11.376;2022-10-17T13:48:43;27.70;48.80
9448;DHT22;4762;48.128;11.376;2022-10-17T13:50:46;28.30;49.00
9448;DHT22;4762;48.128;11.376;2022-10-17T13:52:47;28.70;49.80
9448;DHT22;4762;48.128;11.376;2022-10-17T13:54:50;28.50;48.90
9448;DHT22;4762;48.128;11.376;2022-10-17T13:56:55;28.70;49.00
9448;DHT22;4762;48.128;11.376;2022-10-17T13:59:00;28.60;49.10
9448;DHT22;4762;48.128;11.376;2022-10-17T14:01:00;27.60;50.60
9448;DHT22;4762;48.128;11.376;2022-10-17T14:03:03;27.80;49.70
9448;DHT22;4762;48.128;11.376;2022-10-17T14:05:20;28.20;49.80
9448;DHT22;4762;48.128;11.376;2022-10-17T14:07:25;27.80;48.20
9448;DHT22;4762;48.128;11.376;2022-10-17T14:09:26;27.80;49.30
9448;DHT22;4762;48.128;11.376;2022-10-17T14:11:36;27.90;48.80
9448;DHT22;4762;48.128;11.376;2022-10-17T14:13:37;28.80;50.60
9448;DHT22;4762;48.128;11.376;2022-10-17T14:15:41;27.90;50.00
9448;DHT22;4762;48.128;11.376;2022-10-17T14:17:42;28.30;50.00
9448;DHT22;4762;48.128;11.376;2022-10-17T14:19:44;28.40;48.70
9448;DHT22;4762;48.128;11.376;2022-10-17T14:21:47;27.90;49.50
9448;DHT22;4762;48.128;11.376;2022-10-17T14:23:50;27.60;51.20
9448;DHT22;4762;48.128;11.376;2022-10-17T14:26:02;28.20;51.00
9448;DHT22;4762;48.128;11.376;2022-10-17T14:27:55;28.60;48.60
9448;DHT22;4762;48.128;11.376;2022-10-17T14:29:57;28.30;50.30
9448;DHT22;4762;48.128;11.376;2022-10-17T14:32:04;27.80;48.90
9448;DHT22;4762;48.128;11.376;2022-10-17T14:34:05;27.80;51.10
9448;DHT22;4762;48.128;11.376;2022-10-17T14:36:08;28.20;50.30
9448;DHT22;4762;48.128;11.376;2022-10-17T14:38:11;27.10;49.90
9448;DHT22;4762;48.128;11.376;2022-10-17T14:40:16;27.40;52.30
9448;DHT22;4762;48.128;11.376;2022-10-17T14:42:18;28.70;50.20
9448;DHT22;4762;48.128;11.376;2022-10-17T14:44:30;28.80;51.50
9448;DHT22;4762;48.128;11.376;2022-10-17T14:46:33;28.60;49.40
9448;DHT22;4762;48.128;11.376;2022-10-17T14:48:35;28.10;49.90
9448;DHT22;4762;48.128;11.376;2022-10-17T14:50:37;28.00;51.00
9448;DHT22;4762;48.128;11.376;2022-10-17T14:52:40;27.80;51.00
9448;DHT22;4762;48.128;11.376;2022-10-17T14:54:43;28.20;50.80
9448;DHT22;4762;48.128;11.376;2022-10-17T14:56:48;27.90;50.20
9448;DHT22;4762;48.128;11.376;2022-10-17T14:58:46;27.80;48.80
9448;DHT22;4762;48.128;11.376;2022-10-17T15:00:49;27.00;50.40
9448;DHT22;4762;48.128;11.376;2022-10-17T15:02:52;27.30;50.50
9448;DHT22;4762;48.128;11.376;2022-10-17T15:04:53;27.50;50.40
9448;DHT22;4762;48.128;11.376;2022-10-17T15:06:56;27.50;50.70
9448;DHT22;4762;48.128;11.376;2022-10-17T15:08:58;27.10;50.20
9448;DHT22;4762;48.128;11.376;2022-10-17T15:11:00;26.40;50.60
9448;DHT22;4762;48.128;11.376;2022-10-17T15:13:03;26.50;50.90
9448;DHT22;4762;48.128;11.376;2022-10-17T15:15:05;26.50;52.20
9448;DHT22;4762;48.128;11.376;2022-10-17T15:17:12;26.60;52.60
9448;DHT22;4762;48.128;11.376;2022-10-17T15:19:13;26.30;53.60
9448;DHT22;4762;48.128;11.376;2022-10-17T15:21:17;25.70;53.70
9448;DHT22;4762;48.128;11.376;2022-10-17T15:23:18;25.30;54.30
9448;DHT22;4762;48.128;11.376;2022-10-17T15:25:20;25.40;55.70
9448;DHT22;4762;48.128;11.376;2022-10-17T15:27:23;25.20;55.80
9448;DHT22;4762;48.128;11.376;2022-10-17T15:29:25;24.80;55.90
9448;DHT22;4762;48.128;11.376;2022-10-17T15:31:28;24.80;56.10
9448;DHT22;4762;48.128;11.376;2022-10-17T15:33:30;25.10;56.30
9448;DHT22;4762;48.128;11.376;2022-10-17T15:35:35;25.00;56.80
9448;DHT22;4762;48.128;11.376;2022-10-17T15:37:36;25.10;56.10
9448;DHT22;4762;48.128;11.376;2022-10-17T15:39:39;25.10;56.60
9448;DHT22;4762;48.128;11.376;2022-10-17T15:41:43;25.10;56.90
9448;DHT22;4762;48.128;11.376;2022-10-17T15:43:47;24.90;57.00
9448;DHT22;4762;48.128;11.376;2022-10-17T15:45:53;25.00;57.30
9448;DHT22;4762;48.128;11.376;2022-10-17T15:48:03;24.70;57.60
9448;DHT22;4762;48.128;11.376;2022-10-17T15:50:22;24.70;57.70
9448;DHT22;4762;48.128;11.376;2022-10-17T15:52:42;24.40;57.60
9448;DHT22;4762;48.128;11.376;2022-10-17T15:54:54;24.30;58.30
9448;DHT22;4762;48.128;11.376;2022-10-17T15:57:28;24.40;58.70
9448;DHT22;4762;48.128;11.376;2022-10-17T15:59:42;24.00;58.70
9448;DHT22;4762;48.128;11.376;2022-10-17T16:01:56;24.00;59.50
9448;DHT22;4762;48.128;11.376;2022-10-17T16:04:13;23.20;62.30
9448;DHT22;4762;48.128;11.376;2022-10-17T16:06:51;22.60;64.00
9448;DHT22;4762;48.128;11.376;2022-10-17T16:09:05;22.20;66.20
9448;DHT22;4762;48.128;11.376;2022-10-17T16:11:39;21.90;66.30
9448;DHT22;4762;48.128;11.376;2022-10-17T16:16:16;21.70;67.90
9448;DHT22;4762;48.128;11.376;2022-10-17T16:18:24;21.50;67.70
9448;DHT22;4762;48.128;11.376;2022-10-17T16:32:54;20.50;70.00
9448;DHT22;4762;48.128;11.376;2022-10-17T16:34:56;20.20;71.20
9448;DHT22;4762;48.128;11.376;2022-10-17T16:36:58;20.30;70.60
9448;DHT22;4762;48.128;11.376;2022-10-17T16:39:00;20.30;72.00
9448;DHT22;4762;48.128;11.376;2022-10-17T16:41:12;20.10;72.70
9448;DHT22;4762;48.128;11.376;2022-10-17T16:43:05;19.90;72.80
9448;DHT22;4762;48.128;11.376;2022-10-17T16:45:08;19.90;72.00
9448;DHT22;4762;48.128;11.376;2022-10-17T16:47:10;19.80;73.40
9448;DHT22;4762;48.128;11.376;2022-10-17T16:49:13;19.70;73.00
9448;DHT22;4762;48.128;11.376;2022-10-17T16:51:16;19.90;73.20
9448;DHT22;4762;48.128;11.376;2022-10-17T16:53:17;19.60;73.80
9448;DHT22;4762;48.128;11.376;2022-10-17T16:57:50;19.30;75.10
9448;DHT22;4762;48.128;11.376;2022-10-17T16:59:53;19.30;74.00
9448;DHT22;4762;48.128;11.376;2022-10-17T17:01:55;19.10;76.70
9448;DHT22;4762;48.128;11.376;2022-10-17T17:03:57;18.90;76.70
9448;DHT22;4762;48.128;11.376;2022-10-17T17:06:00;19.00;75.30
9448;DHT22;4762;48.128;11.376;2022-10-17T17:08:02;19.10;75.10
9448;DHT22;4762;48.128;11.376;2022-10-17T17:12:45;18.80;77.10
9448;DHT22;4762;48.128;11.376;2022-10-17T17:14:47;18.90;76.60
9448;DHT22;4762;48.128;11.376;2022-10-17T17:16:50;19.00;76.10
9448;DHT22;4762;48.128;11.376;2022-10-17T17:18:54;18.70;77.80
9448;DHT22;4762;48.128;11.376;2022-10-17T17:20:57;18.60;77.10
9448;DHT22;4762;48.128;11.376;2022-10-17T17:22:59;18.30;78.70
9448;DHT22;4762;48.128;11.376;2022-10-17T17:25:02;18.20;78.90
9448;DHT22;4762;48.128;11.376;2022-10-17T17:27:04;17.80;80.10